Time;durP1;ratioP1;P1;durP2;ratioP2;P2;SDS_P1;SDS_P2;PMS_P1;PMS_P2;Temp;Humidity;BMP_temperature;BMP_pressure;BME280_temperature;BME280_humidity;BME280_pressure;Samples;Min_cycle;Max_cycle;Signal;HPM_P1;HPM_P2
2023/05/30 00:01:15;;;;;;;4.20;1.73;;;11.20;99.90;;;;;;5061957;28;20025;-74
2023/05/30 00:03:47;;;;;;;6.30;1.55;;;11.20;99.90;;;;;;5068432;28;20044;-68
2023/05/30 00:06:14;;;;;;;10.75;2.42;;;11.20;99.90;;;;;;5065780;28;20116;-67
2023/05/30 00:08:41;;;;;;;9.02;2.20;;;11.20;99.90;;;;;;5067769;28;20362;-67
2023/05/30 00:11:08;;;;;;;14.57;2.35;;;11.20;99.90;;;;;;5068441;28;20112;-67
2023/05/30 00:13:34;;;;;;;6.25;1.63;;;11.30;99.90;;;;;;5054420;28;20037;-67
2023/05/30 00:16:01;;;;;;;6.45;1.10;;;11.30;99.90;;;;;;5070885;28;20028;-68
2023/05/30 00:18:34;;;;;;;6.30;1.85;;;11.30;99.90;;;;;;5070159;28;20082;-69
2023/05/30 00:21:05;;;;;;;3.22;1.67;;;11.30;99.90;;;;;;5073126;28;20153;-68
2023/05/30 00:23:32;;;;;;;14.60;1.65;;;11.30;99.90;;;;;;5071939;28;20044;-67
2023/05/30 00:26:03;;;;;;;13.07;2.30;;;11.30;99.90;;;;;;5059364;28;20021;-68
2023/05/30 00:28:29;;;;;;;3.85;1.60;;;11.20;99.90;;;;;;5067457;28;20032;-68
2023/05/30 00:30:55;;;;;;;9.57;2.10;;;11.30;99.90;;;;;;5060022;28;20035;-67
2023/05/30 00:33:21;;;;;;;3.97;1.45;;;11.40;99.90;;;;;;5073177;28;20361;-68
2023/05/30 00:35:47;;;;;;;7.13;1.77;;;11.30;99.90;;;;;;5070899;28;20063;-68
2023/05/30 00:38:12;;;;;;;7.50;1.90;;;11.40;99.90;;;;;;5067712;28;20048;-67
2023/05/30 00:40:38;;;;;;;7.67;2.03;;;11.40;99.90;;;;;;5059228;28;20022;-68
2023/05/30 00:43:04;;;;;;;5.93;2.20;;;11.30;99.90;;;;;;5061286;28;20017;-68
2023/05/30 00:45:30;;;;;;;6.03;1.80;;;11.30;99.90;;;;;;5073722;28;20021;-68
2023/05/30 00:47:56;;;;;;;7.43;1.23;;;11.30;99.90;;;;;;5066421;28;20025;-68
2023/05/30 00:50:26;;;;;;;6.35;1.40;;;11.30;99.90;;;;;;5065193;28;20076;-68
2023/05/30 00:52:53;;;;;;;11.63;2.00;;;11.30;99.90;;;;;;5070236;28;20078;-68
2023/05/30 00:55:21;;;;;;;4.50;1.80;;;11.30;99.90;;;;;;5058863;28;20055;-67
2023/05/30 00:57:47;;;;;;;14.35;1.70;;;11.20;99.90;;;;;;5055719;28;20108;-68
2023/05/30 01:00:14;;;;;;;7.60;1.93;;;11.20;99.90;;;;;;5058305;28;20021;-68
2023/05/30 01:02:43;;;;;;;4.05;1.77;;;11.20;99.90;;;;;;5074231;28;20725;-79
2023/05/30 01:05:12;;;;;;;12.32;1.83;;;11.20;99.90;;;;;;5074351;28;20432;-67
2023/05/30 01:07:43;;;;;;;5.18;1.50;;;11.10;99.90;;;;;;5075714;28;20029;-67
2023/05/30 01:10:11;;;;;;;4.75;1.55;;;11.10;99.90;;;;;;5067674;28;20072;-68
2023/05/30 01:12:56;;;;;;;11.98;2.70;;;11.00;99.90;;;;;;5075232;28;20089;-67
2023/05/30 01:15:27;;;;;;;4.72;1.75;;;11.10;99.90;;;;;;5076623;28;20024;-67
2023/05/30 01:18:03;;;;;;;11.65;1.75;;;11.10;99.90;;;;;;5075508;28;20012;-66
2023/05/30 01:20:36;;;;;;;9.88;1.67;;;11.10;99.90;;;;;;5067433;28;20027;-68
2023/05/30 01:23:23;;;;;;;7.38;2.08;;;11.20;99.90;;;;;;5076973;28;20100;-67
2023/05/30 01:26:30;;;;;;;7.55;2.03;;;11.20;99.90;;;;;;5073600;28;20029;-67
2023/05/30 01:28:58;;;;;;;10.30;2.22;;;11.20;99.90;;;;;;5067179;28;20478;-67
2023/05/30 01:31:24;;;;;;;11.75;1.88;;;11.10;99.90;;;;;;5070089;28;20321;-67
2023/05/30 01:33:52;;;;;;;6.38;1.10;;;11.10;99.90;;;;;;5067936;28;20028;-67
2023/05/30 01:36:19;;;;;;;5.20;2.05;;;11.10;99.90;;;;;;5066236;28;20327;-68
2023/05/30 01:38:44;;;;;;;7.40;2.13;;;11.10;99.90;;;;;;5068910;28;20025;-68
2023/05/30 01:41:40;;;;;;;5.53;1.47;;;11.00;99.90;;;;;;5069563;28;20331;-68
2023/05/30 01:44:29;;;;;;;5.20;1.30;;;11.00;99.90;;;;;;5050744;28;20033;-67
2023/05/30 01:47:14;;;;;;;8.57;2.08;;;11.00;99.90;;;;;;5069326;28;20024;-67
2023/05/30 01:49:44;;;;;;;6.15;1.33;;;11.00;99.90;;;;;;5064923;28;20458;-68
2023/05/30 01:52:20;;;;;;;5.78;1.23;;;11.00;99.90;;;;;;5062940;28;20056;-67
2023/05/30 01:54:56;;;;;;;2.75;1.35;;;11.00;99.90;;;;;;5070550;28;20037;-67
2023/05/30 01:57:25;;;;;;;2.03;1.25;;;11.00;99.90;;;;;;5066483;28;20025;-67
2023/05/30 01:59:52;;;;;;;10.80;2.10;;;11.10;99.90;;;;;;5064915;28;20025;-67
2023/05/30 02:02:18;;;;;;;9.05;2.13;;;11.10;99.90;;;;;;5066677;28;20020;-68
2023/05/30 02:04:44;;;;;;;4.77;2.03;;;11.10;99.90;;;;;;5069946;28;20047;-67
2023/05/30 02:07:10;;;;;;;3.53;1.70;;;11.00;99.90;;;;;;5070533;28;20352;-67
2023/05/30 02:09:37;;;;;;;11.38;2.63;;;11.10;99.90;;;;;;5061465;28;20046;-66
2023/05/30 02:12:03;;;;;;;7.50;1.23;;;11.10;99.90;;;;;;5064921;28;20039;-73
2023/05/30 02:14:30;;;;;;;6.90;1.73;;;11.10;99.90;;;;;;5066228;28;20024;-68
2023/05/30 02:16:59;;;;;;;4.57;1.60;;;11.10;99.90;;;;;;5064364;28;20065;-67
2023/05/30 02:19:25;;;;;;;9.68;1.40;;;11.20;99.90;;;;;;5073889;28;20089;-67
2023/05/30 02:21:51;;;;;;;9.27;2.15;;;11.20;99.90;;;;;;5078065;28;20414;-67
2023/05/30 02:24:17;;;;;;;7.07;2.20;;;11.20;99.90;;;;;;5060778;28;20037;-67
2023/05/30 02:26:42;;;;;;;2.57;1.40;;;11.30;99.90;;;;;;5064567;28;20047;-67
2023/05/30 02:29:08;;;;;;;3.03;1.43;;;11.20;99.90;;;;;;5063970;28;20296;-67
2023/05/30 02:31:34;;;;;;;5.03;1.93;;;11.20;99.90;;;;;;5066255;28;20109;-67
2023/05/30 02:34:00;;;;;;;10.17;1.77;;;11.20;99.90;;;;;;5063788;28;20090;-66
2023/05/30 02:36:25;;;;;;;8.97;1.60;;;11.20;99.90;;;;;;5078337;28;20028;-67
2023/05/30 02:38:51;;;;;;;3.67;2.13;;;11.20;99.90;;;;;;5063420;28;20462;-66
2023/05/30 02:41:17;;;;;;;9.87;1.40;;;11.10;99.90;;;;;;5071758;28;20107;-67
2023/05/30 02:43:43;;;;;;;4.70;1.43;;;11.10;99.90;;;;;;5063616;28;20104;-67
2023/05/30 02:46:09;;;;;;;4.05;1.75;;;11.10;99.90;;;;;;5066718;28;20036;-68
2023/05/30 02:48:35;;;;;;;3.30;1.87;;;11.00;99.90;;;;;;5066972;28;20476;-67
2023/05/30 02:51:00;;;;;;;9.70;1.93;;;11.00;99.90;;;;;;5074572;28;20028;-67
2023/05/30 02:53:26;;;;;;;2.10;1.20;;;10.90;99.90;;;;;;5068079;28;20032;-67
2023/05/30 02:55:54;;;;;;;8.20;1.97;;;11.00;99.90;;;;;;5062837;28;20429;-66
2023/05/30 02:58:20;;;;;;;8.63;2.30;;;11.00;99.90;;;;;;5070817;28;20028;-67
2023/05/30 03:00:46;;;;;;;5.60;2.03;;;11.00;99.90;;;;;;5061636;28;20327;-75
2023/05/30 03:03:12;;;;;;;6.40;2.03;;;11.00;99.90;;;;;;5061736;28;20437;-68
2023/05/30 03:05:38;;;;;;;14.20;3.03;;;11.00;99.90;;;;;;5066395;28;20082;-68
2023/05/30 03:08:05;;;;;;;5.97;1.98;;;11.10;99.90;;;;;;5068911;28;20283;-67
2023/05/30 03:10:30;;;;;;;3.40;1.33;;;11.10;99.90;;;;;;5064396;28;20793;-68
2023/05/30 03:12:56;;;;;;;2.73;1.30;;;11.20;99.90;;;;;;5072136;28;20029;-79
2023/05/30 03:15:22;;;;;;;18.57;1.63;;;11.20;99.90;;;;;;5071365;28;20024;-67
2023/05/30 03:17:48;;;;;;;10.60;2.70;;;11.20;99.90;;;;;;5072620;28;20024;-67
2023/05/30 03:20:15;;;;;;;4.57;2.35;;;11.10;99.90;;;;;;5072226;28;20107;-67
2023/05/30 03:22:42;;;;;;;7.18;2.90;;;11.20;99.90;;;;;;5068291;28;20028;-67
2023/05/30 03:25:08;;;;;;;2.28;1.42;;;11.10;99.90;;;;;;5072837;28;20028;-67
2023/05/30 03:27:34;;;;;;;4.65;1.88;;;11.10;99.90;;;;;;5075146;28;20040;-67
2023/05/30 03:30:04;;;;;;;6.68;2.58;;;11.10;99.90;;;;;;5070522;28;20063;-67
2023/05/30 03:32:31;;;;;;;7.05;1.80;;;11.10;99.90;;;;;;5067234;28;20068;-68
2023/05/30 03:34:57;;;;;;;8.88;2.15;;;11.20;99.90;;;;;;5063199;28;20032;-67
2023/05/30 03:37:23;;;;;;;7.10;2.40;;;11.20;99.90;;;;;;5060192;28;20024;-67
2023/05/30 03:39:49;;;;;;;4.22;1.30;;;11.20;99.90;;;;;;5072820;28;20028;-66
2023/05/30 03:42:15;;;;;;;14.73;1.43;;;11.20;99.90;;;;;;5074302;28;20111;-67
2023/05/30 03:44:40;;;;;;;0.97;0.83;;;11.10;99.90;;;;;;5073841;28;20059;-65
2023/05/30 03:47:07;;;;;;;6.10;1.37;;;11.20;99.90;;;;;;5071684;28;20056;-76
2023/05/30 03:49:32;;;;;;;2.85;1.67;;;11.10;99.90;;;;;;5073576;28;20036;-67
2023/05/30 03:51:58;;;;;;;5.10;1.73;;;11.10;99.90;;;;;;5074870;28;20028;-67
2023/05/30 03:54:24;;;;;;;3.80;1.03;;;11.10;99.90;;;;;;5067893;28;20490;-67
2023/05/30 03:56:50;;;;;;;6.13;2.30;;;11.10;99.90;;;;;;5059229;28;20037;-67
2023/05/30 03:59:15;;;;;;;2.07;1.03;;;11.00;99.90;;;;;;5068803;28;20099;-65
2023/05/30 04:01:41;;;;;;;7.37;2.13;;;11.00;99.90;;;;;;5074050;28;20024;-67
2023/05/30 04:04:07;;;;;;;2.67;1.23;;;11.00;99.90;;;;;;5058942;28;20032;-68
2023/05/30 04:06:36;;;;;;;12.17;2.10;;;11.00;99.90;;;;;;5063189;28;20051;-66
2023/05/30 04:09:03;;;;;;;9.88;2.33;;;11.00;99.90;;;;;;5070306;28;20031;-66
2023/05/30 04:11:29;;;;;;;2.92;1.60;;;11.00;99.90;;;;;;5070425;28;20038;-66
2023/05/30 04:13:55;;;;;;;5.07;2.45;;;11.00;99.90;;;;;;5072835;28;20442;-67
2023/05/30 04:16:21;;;;;;;4.37;2.07;;;11.00;99.90;;;;;;5066757;28;20041;-67
2023/05/30 04:18:47;;;;;;;5.23;1.47;;;11.00;99.90;;;;;;5067810;28;20094;-66
2023/05/30 04:21:14;;;;;;;5.07;2.43;;;11.00;99.90;;;;;;5054664;28;20408;-76
2023/05/30 04:23:40;;;;;;;8.52;2.70;;;11.00;99.90;;;;;;5072600;28;20016;-67
2023/05/30 04:26:08;;;;;;;6.10;2.25;;;11.00;99.90;;;;;;5071496;28;20680;-66
2023/05/30 04:28:42;;;;;;;9.98;2.17;;;11.00;99.90;;;;;;5073467;28;20101;-66
2023/05/30 04:31:08;;;;;;;6.90;2.05;;;11.00;99.90;;;;;;5074209;28;20032;-66
2023/05/30 04:33:35;;;;;;;3.83;1.95;;;11.00;99.90;;;;;;5071629;28;20032;-67
2023/05/30 04:36:05;;;;;;;2.40;1.60;;;11.10;99.90;;;;;;5066610;28;20047;-66
2023/05/30 04:38:34;;;;;;;8.82;1.55;;;11.00;99.90;;;;;;5074686;28;20025;-67
2023/05/30 04:41:02;;;;;;;7.65;1.20;;;11.00;99.90;;;;;;5083045;28;20019;-66
2023/05/30 04:43:34;;;;;;;13.45;1.95;;;11.00;99.90;;;;;;5070558;28;20024;-67
2023/05/30 04:46:00;;;;;;;2.53;1.50;;;11.10;99.90;;;;;;5071668;28;20444;-67
2023/05/30 04:48:27;;;;;;;7.53;1.60;;;11.10;99.90;;;;;;5095277;28;20422;-66
2023/05/30 04:50:53;;;;;;;2.25;1.48;;;11.10;99.90;;;;;;5063306;28;20024;-66
2023/05/30 04:53:20;;;;;;;9.23;2.30;;;11.10;99.90;;;;;;5077797;28;20029;-68
2023/05/30 04:55:46;;;;;;;6.28;1.50;;;11.10;99.90;;;;;;5070036;28;20427;-65
2023/05/30 04:58:13;;;;;;;14.18;2.78;;;11.20;99.90;;;;;;5062629;28;20033;-66
2023/05/30 05:00:40;;;;;;;6.90;1.48;;;11.20;99.90;;;;;;5074893;28;20033;-66
2023/05/30 05:03:08;;;;;;;7.43;2.63;;;11.20;99.90;;;;;;5063558;28;20013;-67
2023/05/30 05:05:34;;;;;;;6.97;1.65;;;11.30;99.90;;;;;;5076994;28;20036;-67
2023/05/30 05:08:00;;;;;;;4.45;1.80;;;11.30;99.90;;;;;;5063027;28;20464;-66
2023/05/30 05:10:27;;;;;;;6.30;2.37;;;11.30;99.90;;;;;;5075421;28;20074;-68
2023/05/30 05:12:53;;;;;;;8.40;2.00;;;11.30;99.90;;;;;;5093714;28;20104;-67
2023/05/30 05:15:19;;;;;;;7.30;2.30;;;11.30;99.90;;;;;;5066576;28;20040;-66
2023/05/30 05:17:45;;;;;;;8.40;2.43;;;11.30;99.90;;;;;;5069781;28;20277;-74
2023/05/30 05:20:12;;;;;;;9.90;1.77;;;11.30;99.90;;;;;;5076398;28;20016;-67
2023/05/30 05:22:38;;;;;;;7.72;1.77;;;11.40;99.90;;;;;;5077026;28;20032;-66
2023/05/30 05:25:04;;;;;;;5.10;1.50;;;11.40;99.90;;;;;;5063383;28;20459;-67
2023/05/30 05:27:30;;;;;;;16.13;2.38;;;11.50;99.90;;;;;;5072755;28;20061;-68
2023/05/30 05:29:56;;;;;;;9.67;1.73;;;11.60;99.90;;;;;;5071047;28;20052;-66
2023/05/30 05:32:23;;;;;;;4.22;2.30;;;11.60;99.90;;;;;;5070324;28;20431;-66
2023/05/30 05:34:49;;;;;;;9.07;1.48;;;11.70;99.90;;;;;;5069465;28;20123;-67
2023/05/30 05:37:15;;;;;;;11.18;2.10;;;11.70;99.90;;;;;;5071945;28;20025;-76
2023/05/30 05:39:41;;;;;;;4.67;1.27;;;11.80;99.90;;;;;;5067543;28;20031;-66
2023/05/30 05:42:07;;;;;;;4.13;1.90;;;11.70;99.90;;;;;;5075909;28;20059;-67
2023/05/30 05:44:35;;;;;;;7.57;2.33;;;11.70;99.90;;;;;;5075697;28;20060;-75
2023/05/30 05:47:01;;;;;;;8.65;1.63;;;11.60;99.90;;;;;;5074457;28;20028;-67
2023/05/30 05:49:26;;;;;;;7.40;1.77;;;11.60;99.90;;;;;;5072174;28;20385;-66
2023/05/30 05:51:53;;;;;;;12.07;1.67;;;11.60;99.90;;;;;;5073847;28;20024;-67
2023/05/30 05:54:19;;;;;;;9.93;2.13;;;11.60;99.90;;;;;;5073785;28;20020;-66
2023/05/30 05:56:45;;;;;;;2.73;1.60;;;11.70;99.90;;;;;;5073062;28;20333;-66
2023/05/30 05:59:12;;;;;;;8.20;2.00;;;11.70;99.90;;;;;;5076099;28;20024;-67
2023/05/30 06:01:38;;;;;;;6.38;1.60;;;11.80;99.90;;;;;;5074901;28;20031;-68
2023/05/30 06:04:13;;;;;;;6.32;2.35;;;11.70;99.90;;;;;;5071401;28;20028;-67
2023/05/30 06:06:39;;;;;;;6.80;1.50;;;11.90;99.90;;;;;;5076336;28;20054;-68
2023/05/30 06:09:05;;;;;;;11.38;2.42;;;11.80;99.90;;;;;;5071613;28;20492;-68
2023/05/30 06:11:31;;;;;;;14.07;3.13;;;11.90;99.90;;;;;;5084760;28;20107;-67
2023/05/30 06:13:57;;;;;;;5.10;2.45;;;11.90;99.90;;;;;;5071546;28;20060;-69
2023/05/30 06:16:23;;;;;;;6.27;1.47;;;12.00;99.90;;;;;;5074807;28;20075;-67
2023/05/30 06:18:49;;;;;;;8.03;1.93;;;12.10;99.90;;;;;;5067883;28;20017;-67
2023/05/30 06:21:14;;;;;;;5.07;2.27;;;12.20;99.90;;;;;;5066513;28;20020;-67
2023/05/30 06:23:40;;;;;;;10.77;1.83;;;12.30;99.90;;;;;;5073062;28;20030;-68
2023/05/30 06:26:06;;;;;;;4.10;1.57;;;12.30;99.90;;;;;;5069453;28;20552;-67
2023/05/30 06:28:31;;;;;;;5.23;2.53;;;12.30;99.90;;;;;;5069329;28;20040;-67
2023/05/30 06:30:57;;;;;;;8.90;1.63;;;12.40;99.90;;;;;;5072975;28;20024;-69
2023/05/30 06:33:23;;;;;;;7.17;2.17;;;12.50;99.90;;;;;;5071286;28;20097;-65
2023/05/30 06:35:48;;;;;;;4.53;1.30;;;12.50;99.90;;;;;;5069857;28;20048;-66
2023/05/30 06:38:17;;;;;;;17.17;2.10;;;12.40;99.90;;;;;;5073486;28;20110;-77
2023/05/30 06:40:43;;;;;;;6.22;1.80;;;12.40;99.90;;;;;;5075702;28;20111;-75
2023/05/30 06:43:09;;;;;;;6.80;1.80;;;12.40;99.90;;;;;;5068266;28;20124;-66
2023/05/30 06:45:34;;;;;;;2.80;1.50;;;12.40;99.90;;;;;;5069788;28;20111;-66
2023/05/30 06:48:01;;;;;;;4.10;1.57;;;12.40;99.90;;;;;;5069399;28;20052;-76
2023/05/30 06:50:27;;;;;;;3.88;1.55;;;12.40;99.90;;;;;;5061978;28;20111;-66
2023/05/30 06:52:53;;;;;;;12.38;1.38;;;12.50;99.90;;;;;;5079011;28;20331;-67
2023/05/30 06:55:19;;;;;;;2.10;1.37;;;12.50;99.90;;;;;;5074412;28;20049;-67
2023/05/30 06:57:45;;;;;;;11.60;2.33;;;12.50;99.90;;;;;;5066632;28;20020;-66
2023/05/30 07:00:11;;;;;;;8.70;2.43;;;12.50;99.90;;;;;;5059594;28;20025;-67
2023/05/30 07:02:37;;;;;;;3.55;1.15;;;12.50;99.90;;;;;;5062334;28;20024;-70
2023/05/30 07:05:03;;;;;;;4.47;1.27;;;12.50;99.90;;;;;;5062848;28;20040;-67
2023/05/30 07:07:29;;;;;;;6.20;2.60;;;12.50;99.90;;;;;;5065964;28;20028;-67
2023/05/30 07:09:55;;;;;;;2.33;1.00;;;12.50;99.90;;;;;;5068802;28;20089;-66
2023/05/30 07:12:21;;;;;;;8.70;1.40;;;12.60;99.90;;;;;;5071689;28;20021;-67
2023/05/30 07:14:47;;;;;;;2.20;1.60;;;12.50;99.90;;;;;;5066453;28;20024;-66
2023/05/30 07:17:12;;;;;;;1.87;1.10;;;12.60;99.90;;;;;;5065927;28;20021;-67
2023/05/30 07:19:39;;;;;;;6.17;1.97;;;12.50;99.90;;;;;;5066470;28;20032;-66
2023/05/30 07:22:05;;;;;;;8.40;1.40;;;12.60;99.90;;;;;;5070601;28;20051;-66
2023/05/30 07:24:31;;;;;;;5.33;1.70;;;12.60;99.90;;;;;;5064102;28;20036;-67
2023/05/30 07:26:57;;;;;;;9.63;2.23;;;12.70;99.90;;;;;;5068411;28;20031;-68
2023/05/30 07:29:23;;;;;;;7.07;1.53;;;12.80;99.90;;;;;;5060055;28;20029;-68
2023/05/30 07:31:48;;;;;;;14.20;1.70;;;13.00;99.90;;;;;;5079828;28;20029;-68
2023/05/30 07:34:14;;;;;;;7.10;1.50;;;13.00;99.90;;;;;;5068699;28;20024;-67
2023/05/30 07:36:40;;;;;;;9.20;1.43;;;12.90;99.90;;;;;;5065714;28;20104;-68
2023/05/30 07:39:05;;;;;;;15.27;2.10;;;12.90;99.90;;;;;;5067961;28;20468;-75
2023/05/30 07:41:31;;;;;;;9.03;1.60;;;12.80;99.90;;;;;;5071877;28;20017;-67
2023/05/30 07:43:57;;;;;;;1.67;1.30;;;12.90;99.90;;;;;;5080203;28;20036;-67
2023/05/30 07:46:22;;;;;;;2.90;1.67;;;13.00;99.90;;;;;;5081750;28;20071;-66
2023/05/30 07:48:48;;;;;;;7.83;2.03;;;13.30;99.90;;;;;;5080974;28;20025;-67
2023/05/30 07:51:19;;;;;;;4.35;1.13;;;13.30;99.90;;;;;;5078436;28;20311;-67
2023/05/30 07:53:45;;;;;;;5.82;1.23;;;13.40;99.90;;;;;;5079510;28;20191;-67
2023/05/30 07:56:10;;;;;;;4.60;1.63;;;13.40;99.90;;;;;;5069454;28;20067;-66
2023/05/30 07:58:36;;;;;;;5.17;1.93;;;13.30;99.90;;;;;;5068678;28;20027;-74
2023/05/30 08:01:02;;;;;;;7.00;1.57;;;13.30;99.90;;;;;;5087577;28;20020;-68
2023/05/30 08:03:27;;;;;;;4.40;1.70;;;13.20;99.90;;;;;;5091936;28;20048;-69
2023/05/30 08:05:53;;;;;;;7.07;2.37;;;13.20;99.90;;;;;;5080601;28;20028;-68
2023/05/30 08:08:19;;;;;;;6.93;2.20;;;13.30;99.90;;;;;;5081775;28;20376;-67
2023/05/30 08:10:44;;;;;;;5.87;1.60;;;13.40;99.90;;;;;;5082231;28;20042;-67
2023/05/30 08:13:13;;;;;;;1.10;0.80;;;13.40;99.90;;;;;;5086446;28;20036;-67
2023/05/30 08:15:39;;;;;;;4.38;2.00;;;13.30;99.90;;;;;;5063817;28;20366;-67
2023/05/30 08:18:04;;;;;;;2.27;1.30;;;13.30;99.90;;;;;;5071124;28;20032;-67
2023/05/30 08:20:30;;;;;;;2.97;0.93;;;13.20;99.90;;;;;;5066847;28;20017;-77
2023/05/30 08:22:56;;;;;;;3.83;1.27;;;13.20;99.90;;;;;;5072087;28;20032;-67
2023/05/30 08:25:32;;;;;;;4.20;1.60;;;13.30;99.90;;;;;;5089124;28;20027;-67
2023/05/30 08:28:02;;;;;;;7.70;1.83;;;13.40;99.90;;;;;;5084425;28;20082;-76
2023/05/30 08:30:28;;;;;;;4.47;1.13;;;13.50;99.90;;;;;;5063007;28;20035;-67
2023/05/30 08:32:55;;;;;;;3.72;1.80;;;13.40;99.90;;;;;;5072680;28;20124;-67
2023/05/30 08:35:20;;;;;;;3.88;0.95;;;13.40;99.90;;;;;;5068223;28;20071;-68
2023/05/30 08:37:47;;;;;;;2.13;0.70;;;13.60;99.90;;;;;;5077309;28;20048;-68
2023/05/30 08:40:14;;;;;;;4.80;1.40;;;13.70;99.90;;;;;;5093150;28;20489;-67
2023/05/30 08:42:41;;;;;;;10.70;2.22;;;13.60;99.90;;;;;;5097161;28;20406;-67
2023/05/30 08:45:07;;;;;;;5.03;1.30;;;13.70;99.90;;;;;;5090683;28;20059;-75
2023/05/30 08:47:35;;;;;;;3.05;1.52;;;13.80;99.90;;;;;;5064638;28;20289;-68
2023/05/30 08:50:04;;;;;;;3.97;2.15;;;13.70;99.90;;;;;;5064054;28;20029;-67
2023/05/30 08:52:32;;;;;;;2.75;1.05;;;13.80;99.90;;;;;;5069162;28;20024;-78
2023/05/30 08:55:11;;;;;;;11.48;1.65;;;13.70;99.90;;;;;;5062916;28;20392;-67
2023/05/30 08:57:42;;;;;;;4.57;1.30;;;13.70;99.90;;;;;;5063532;28;20036;-68
2023/05/30 09:00:11;;;;;;;3.03;1.20;;;13.70;99.90;;;;;;5066461;28;20025;-68
2023/05/30 09:02:37;;;;;;;5.60;2.53;;;13.70;99.90;;;;;;5063076;28;20044;-67
2023/05/30 09:05:04;;;;;;;5.97;1.60;;;13.60;99.90;;;;;;5090724;28;20031;-68
2023/05/30 09:07:31;;;;;;;4.63;1.35;;;13.60;99.90;;;;;;5074613;28;20039;-67
2023/05/30 09:09:57;;;;;;;;;;;13.50;99.90;;;;;;5074646;28;20318;-68
2023/05/30 09:12:25;;;;;;;1.70;1.42;;;13.40;99.90;;;;;;5060980;28;19954;-67
2023/05/30 09:14:51;;;;;;;3.38;1.65;;;13.40;99.90;;;;;;5067303;28;20454;-68
2023/05/30 09:17:17;;;;;;;4.63;1.50;;;13.40;99.90;;;;;;5058067;28;20033;-68
2023/05/30 09:19:43;;;;;;;2.88;1.25;;;13.40;99.90;;;;;;5060718;28;20655;-66
2023/05/30 09:22:09;;;;;;;3.15;0.93;;;13.40;99.90;;;;;;5060913;28;20048;-79
2023/05/30 09:24:56;;;;;;;4.93;2.00;;;13.50;99.90;;;;;;5062058;28;20411;-78
2023/05/30 09:27:22;;;;;;;8.18;1.75;;;13.40;99.90;;;;;;5060926;28;20420;-67
2023/05/30 09:29:48;;;;;;;2.33;1.15;;;13.50;99.90;;;;;;5063084;28;20031;-68
2023/05/30 09:32:14;;;;;;;3.47;0.80;;;13.50;99.90;;;;;;5061329;28;20029;-76
2023/05/30 09:34:40;;;;;;;6.10;1.63;;;13.50;99.90;;;;;;5062604;28;20449;-68
2023/05/30 09:37:06;;;;;;;5.80;0.95;;;13.50;99.90;;;;;;5060067;28;20136;-68
2023/05/30 09:39:32;;;;;;;2.50;1.40;;;13.40;99.90;;;;;;5059366;28;20104;-78
2023/05/30 09:41:58;;;;;;;7.03;1.63;;;13.50;99.90;;;;;;5066275;28;20040;-68
2023/05/30 09:44:24;;;;;;;1.48;1.23;;;13.30;99.90;;;;;;5063278;28;20040;-68
2023/05/30 09:46:57;;;;;;;6.20;1.58;;;13.30;99.90;;;;;;5068984;28;20021;-69
2023/05/30 09:49:25;;;;;;;6.63;2.33;;;13.10;99.90;;;;;;5061525;28;20035;-68
2023/05/30 09:51:51;;;;;;;6.28;1.30;;;13.20;99.90;;;;;;5077940;28;20104;-68
2023/05/30 09:54:18;;;;;;;5.10;1.90;;;13.20;99.90;;;;;;5084219;28;20131;-68
2023/05/30 09:56:44;;;;;;;4.53;1.10;;;13.10;99.90;;;;;;5061488;28;20047;-68
2023/05/30 09:59:14;;;;;;;3.47;1.67;;;13.10;99.90;;;;;;5081109;28;20095;-68
2023/05/30 10:01:44;;;;;;;1.73;1.33;;;13.10;99.90;;;;;;5095296;28;20023;-68
2023/05/30 10:04:23;;;;;;;3.75;1.38;;;13.10;99.90;;;;;;5083770;28;20020;-69
2023/05/30 10:06:53;;;;;;;4.25;1.40;;;13.10;99.90;;;;;;5081519;28;20058;-68
2023/05/30 10:09:20;;;;;;;10.43;1.98;;;13.10;99.90;;;;;;5083803;28;20056;-68
2023/05/30 10:11:47;;;;;;;5.07;1.63;;;13.10;99.90;;;;;;5087596;28;20024;-70
2023/05/30 10:14:13;;;;;;;4.88;1.65;;;13.10;99.90;;;;;;5090133;28;20103;-68
2023/05/30 10:16:48;;;;;;;3.70;1.90;;;13.20;99.90;;;;;;5075074;28;20035;-69
2023/05/30 10:19:21;;;;;;;5.10;1.83;;;13.20;99.90;;;;;;5083728;28;20020;-67
2023/05/30 10:21:47;;;;;;;4.03;1.40;;;13.20;99.90;;;;;;5086792;28;20017;-68
2023/05/30 10:24:15;;;;;;;4.03;1.63;;;13.30;99.90;;;;;;5084999;28;20081;-68
2023/05/30 10:26:49;;;;;;;2.90;1.83;;;13.40;99.90;;;;;;5073017;28;20033;-68
2023/05/30 10:29:19;;;;;;;9.20;1.55;;;13.50;99.90;;;;;;5065114;28;20032;-68
2023/05/30 10:31:45;;;;;;;5.82;1.70;;;13.50;99.90;;;;;;5066583;28;20107;-77
2023/05/30 10:34:14;;;;;;;4.18;1.92;;;13.30;99.90;;;;;;5085616;28;20024;-68
2023/05/30 10:36:42;;;;;;;3.25;1.60;;;13.40;99.90;;;;;;5065961;28;20082;-68
2023/05/30 10:39:20;;;;;;;5.45;2.25;;;13.40;99.90;;;;;;5063803;28;20425;-69
2023/05/30 10:41:58;;;;;;;7.82;1.92;;;13.40;99.90;;;;;;5080074;28;20016;-67
2023/05/30 10:44:44;;;;;;;6.47;2.55;;;13.40;99.90;;;;;;5069029;28;20021;-69
2023/05/30 10:47:55;;;;;;;2.88;1.60;;;13.40;99.90;;;;;;5076864;28;20032;-68
2023/05/30 10:50:31;;;;;;;5.82;1.88;;;13.30;99.90;;;;;;5053889;28;20090;-68
2023/05/30 10:52:57;;;;;;;3.85;1.85;;;13.30;99.90;;;;;;5058422;28;20021;-68
2023/05/30 10:55:26;;;;;;;3.28;1.85;;;13.30;99.90;;;;;;5057202;28;20049;-69
2023/05/30 10:57:52;;;;;;;3.08;1.58;;;13.40;99.90;;;;;;5060518;28;20031;-68
2023/05/30 11:00:26;;;;;;;2.17;1.60;;;13.40;99.90;;;;;;5057079;28;20319;-68
2023/05/30 11:02:53;;;;;;;2.88;1.73;;;13.30;99.90;;;;;;5056878;28;20029;-68
2023/05/30 11:05:23;;;;;;;;;;;13.50;99.90;;;;;;5055750;28;20128;-69
2023/05/30 11:07:49;;;;;;;1.90;1.40;;;13.50;99.90;;;;;;5058887;28;20090;-69
2023/05/30 11:10:27;;;;;;;1.05;0.95;;;13.40;99.90;;;;;;5063382;28;20037;-72
2023/05/30 11:13:05;;;;;;;4.45;1.73;;;13.30;99.90;;;;;;5058242;28;20036;-68
2023/05/30 11:15:33;;;;;;;2.40;1.52;;;13.40;99.90;;;;;;5075015;28;20032;-76
2023/05/30 11:17:59;;;;;;;1.85;1.35;;;13.40;99.90;;;;;;5071103;28;20021;-68
2023/05/30 11:20:26;;;;;;;2.35;1.40;;;13.60;99.90;;;;;;5059785;28;20334;-67
2023/05/30 11:23:01;;;;;;;6.82;1.80;;;13.60;99.90;;;;;;5069324;28;20052;-68
2023/05/30 11:25:29;;;;;;;1.75;1.30;;;13.70;99.90;;;;;;5061075;28;20108;-68
2023/05/30 11:28:03;;;;;;;1.88;1.38;;;13.70;99.90;;;;;;5059616;28;20047;-68
2023/05/30 11:30:33;;;;;;;2.63;1.10;;;13.60;99.90;;;;;;5074819;28;20034;-70
2023/05/30 11:32:59;;;;;;;2.63;1.80;;;13.70;99.90;;;;;;5075119;28;20043;-69
2023/05/30 11:35:30;;;;;;;6.25;1.83;;;13.90;99.90;;;;;;5066880;28;20441;-68
2023/05/30 11:37:56;;;;;;;6.00;2.40;;;14.00;99.90;;;;;;5071734;28;20024;-79
2023/05/30 11:40:25;;;;;;;1.80;1.33;;;14.00;99.90;;;;;;5058051;28;20033;-68
2023/05/30 11:42:55;;;;;;;3.88;1.45;;;14.20;99.90;;;;;;5080613;28;20410;-69
2023/05/30 11:45:26;;;;;;;3.22;2.03;;;14.30;99.90;;;;;;5065175;28;20031;-68
2023/05/30 11:47:52;;;;;;;1.23;1.08;;;14.40;99.90;;;;;;5073522;28;20050;-68
2023/05/30 11:50:20;;;;;;;1.90;1.23;;;14.50;99.90;;;;;;5065029;28;20542;-69
2023/05/30 11:52:46;;;;;;;3.55;1.00;;;14.40;99.90;;;;;;5056713;28;20033;-69
2023/05/30 11:55:12;;;;;;;0.90;0.73;;;14.20;99.90;;;;;;5059755;28;20063;-68
2023/05/30 11:57:39;;;;;;;1.92;1.40;;;14.20;99.90;;;;;;5055579;28;20131;-68
2023/05/30 12:00:11;;;;;;;1.13;0.53;;;14.20;99.90;;;;;;5066263;28;20024;-74
2023/05/30 12:02:38;;;;;;;2.33;0.70;;;14.20;99.90;;;;;;5062556;28;20021;-71
2023/05/30 12:05:05;;;;;;;1.65;1.08;;;14.10;99.90;;;;;;5062724;28;20024;-69
2023/05/30 12:07:32;;;;;;;2.67;0.80;;;14.20;99.90;;;;;;5059099;28;20029;-69
2023/05/30 12:09:58;;;;;;;0.85;0.73;;;14.40;99.90;;;;;;5065045;28;20033;-70
2023/05/30 12:12:23;;;;;;;0.50;0.50;;;14.30;99.90;;;;;;5067396;28;20035;-67
2023/05/30 12:14:52;;;;;;;3.73;0.87;;;14.20;99.90;;;;;;5079620;28;20025;-67
2023/05/30 12:17:24;;;;;;;0.30;0.30;;;14.10;99.90;;;;;;5084345;28;20123;-74
2023/05/30 12:19:50;;;;;;;0.73;0.60;;;13.90;99.90;;;;;;5081468;28;20017;-67
2023/05/30 12:22:17;;;;;;;;;;;13.80;99.90;;;;;;5088466;28;20024;-69
2023/05/30 12:24:44;;;;;;;0.52;0.52;;;13.70;99.90;;;;;;5072072;28;20242;-69
2023/05/30 12:27:21;;;;;;;1.92;0.88;;;13.70;99.90;;;;;;5068598;28;20025;-75
2023/05/30 12:29:46;;;;;;;2.60;1.13;;;13.60;99.90;;;;;;5068915;28;20028;-68
2023/05/30 12:32:12;;;;;;;0.97;0.70;;;13.70;99.90;;;;;;5067345;28;20075;-69
2023/05/30 12:34:39;;;;;;;0.63;0.63;;;13.70;99.90;;;;;;5059761;28;20107;-69
2023/05/30 12:37:10;;;;;;;0.85;0.85;;;13.80;99.90;;;;;;5064046;28;20478;-67
2023/05/30 12:40:01;;;;;;;1.88;1.05;;;13.90;99.90;;;;;;5061088;28;20025;-68
2023/05/30 12:42:28;;;;;;;1.27;1.00;;;14.00;99.90;;;;;;5057821;28;20354;-68
2023/05/30 12:44:56;;;;;;;1.10;0.90;;;14.10;99.90;;;;;;5065652;28;20478;-69
2023/05/30 12:47:23;;;;;;;1.35;1.00;;;14.10;99.90;;;;;;5074347;28;20017;-76
2023/05/30 12:49:49;;;;;;;2.72;1.27;;;14.30;99.90;;;;;;5091558;28;20031;-69